createdAt,value
2017-03-26T00:00:09.397Z,1022.19
2017-03-26T00:00:50.279Z,1022.22
2017-03-26T00:01:31.164Z,1022.24
2017-03-26T00:02:12.045Z,1022.22
2017-03-26T00:02:52.926Z,1022.22
2017-03-26T00:03:33.812Z,1022.2
2017-03-26T00:04:14.696Z,1022.2
2017-03-26T00:04:55.575Z,1022.21
2017-03-26T00:05:36.453Z,1022.27
2017-03-26T00:06:17.336Z,1022.19
2017-03-26T00:06:58.214Z,1022.16
2017-03-26T00:07:39.107Z,1022.2
2017-03-26T00:08:19.992Z,1022.22
2017-03-26T00:09:00.877Z,1022.19
2017-03-26T00:09:41.766Z,1022.18
2017-03-26T00:10:22.647Z,1022.18
2017-03-26T00:11:03.525Z,1022.19
2017-03-26T00:11:44.411Z,1022.17
2017-03-26T00:12:25.295Z,1022.22
2017-03-26T00:13:06.173Z,1022.22
2017-03-26T00:13:47.051Z,1022.22
2017-03-26T00:14:27.920Z,1022.21
2017-03-26T00:15:08.799Z,1022.24
2017-03-26T00:15:49.687Z,1022.22
2017-03-26T00:16:30.572Z,1022.19
2017-03-26T00:17:11.445Z,1022.22
2017-03-26T00:17:52.321Z,1022.15
2017-03-26T00:18:33.192Z,1022.16
2017-03-26T00:19:14.083Z,1022.11
2017-03-26T00:19:54.975Z,1022.13
2017-03-26T00:20:35.843Z,1022.12
2017-03-26T00:21:16.727Z,1022.11
2017-03-26T00:21:57.611Z,1022.12
2017-03-26T00:22:38.506Z,1022.12
2017-03-26T00:23:19.374Z,1022.11
2017-03-26T00:24:00.256Z,1022.14
2017-03-26T00:24:41.147Z,1022.09
2017-03-26T00:25:22.020Z,1022.08
2017-03-26T00:26:02.898Z,1022.09
2017-03-26T00:26:43.778Z,1022.06
2017-03-26T00:27:24.653Z,1022.02
2017-03-26T00:28:05.528Z,1022.06
2017-03-26T00:28:46.418Z,1022.05
2017-03-26T00:29:27.297Z,1022.09
2017-03-26T00:30:08.185Z,1022.05
2017-03-26T00:30:49.067Z,1022.06
2017-03-26T00:31:29.947Z,1022.08
2017-03-26T00:32:10.829Z,1022.1
2017-03-26T00:32:51.708Z,1022.1
2017-03-26T00:33:32.586Z,1022.09
2017-03-26T00:34:13.457Z,1022.09
2017-03-26T00:34:54.346Z,1022.1
2017-03-26T00:35:35.225Z,1022.11
2017-03-26T00:36:16.147Z,1022.12
2017-03-26T00:36:56.992Z,1022.13
2017-03-26T00:37:37.871Z,1022.1
2017-03-26T00:38:18.749Z,1022.1
2017-03-26T00:38:59.638Z,1022.16
2017-03-26T00:39:40.494Z,1022.13
2017-03-26T00:40:21.381Z,1022.14
2017-03-26T00:41:02.258Z,1022.11
2017-03-26T00:41:43.140Z,1022.12
2017-03-26T00:42:24.020Z,1022.1
2017-03-26T00:43:04.901Z,1022.07
2017-03-26T00:43:45.789Z,1022.08
2017-03-26T00:44:26.651Z,1022.07
2017-03-26T00:45:07.527Z,1022.05
2017-03-26T00:45:48.410Z,1022.07
2017-03-26T00:46:29.285Z,1022.04
2017-03-26T00:47:10.166Z,1022.1
2017-03-26T00:47:51.049Z,1022.03
2017-03-26T00:48:31.930Z,1022.04
2017-03-26T00:49:12.816Z,1022.08
2017-03-26T00:49:53.708Z,1022.07
2017-03-26T00:50:34.585Z,1022.06
2017-03-26T00:51:15.460Z,1022.07
2017-03-26T00:51:56.340Z,1022.08
2017-03-26T00:52:37.226Z,1022.06
2017-03-26T00:53:18.112Z,1022.11
2017-03-26T00:53:58.993Z,1022.1
2017-03-26T00:54:39.873Z,1022.09
2017-03-26T00:55:20.758Z,1022.12
2017-03-26T00:56:01.636Z,1022.15
2017-03-26T00:56:42.516Z,1022.09
2017-03-26T00:57:23.391Z,1022.1
2017-03-26T00:58:04.272Z,1022.09
2017-03-26T00:58:45.149Z,1022.1
2017-03-26T00:59:26.033Z,1022.05
2017-03-26T01:00:06.909Z,1022.01
2017-03-26T01:00:47.781Z,1022.07
2017-03-26T01:01:28.663Z,1022.05
2017-03-26T01:02:09.541Z,1022.01
2017-03-26T01:02:50.429Z,1022.02
2017-03-26T01:03:31.310Z,1021.98
2017-03-26T01:04:12.194Z,1022.02
2017-03-26T01:04:53.082Z,1021.98
2017-03-26T01:05:33.964Z,1022.02
2017-03-26T01:06:14.844Z,1022.01
2017-03-26T01:06:55.732Z,1022.02
2017-03-26T01:07:36.617Z,1021.98
2017-03-26T01:08:17.498Z,1022
2017-03-26T01:08:58.378Z,1021.99
2017-03-26T01:09:39.259Z,1021.96
2017-03-26T01:10:20.191Z,1021.96
2017-03-26T01:11:01.024Z,1021.93
2017-03-26T01:11:41.904Z,1021.97
2017-03-26T01:12:22.785Z,1021.96
2017-03-26T01:13:03.663Z,1022
2017-03-26T01:13:44.545Z,1021.97
2017-03-26T01:14:25.432Z,1021.99
2017-03-26T01:15:06.309Z,1021.96
2017-03-26T01:15:47.189Z,1021.92
2017-03-26T01:16:28.072Z,1021.99
2017-03-26T01:17:08.950Z,1021.93
2017-03-26T01:17:49.832Z,1021.93
2017-03-26T01:18:30.716Z,1021.92
2017-03-26T01:19:11.600Z,1021.89
2017-03-26T01:19:52.511Z,1021.91
2017-03-26T01:20:33.364Z,1021.91
2017-03-26T01:21:14.248Z,1021.87
2017-03-26T01:21:55.139Z,1021.9
2017-03-26T01:22:36.017Z,1021.9
2017-03-26T01:23:16.897Z,1021.87
2017-03-26T01:23:57.792Z,1021.92
2017-03-26T01:24:38.675Z,1021.88
2017-03-26T01:25:19.553Z,1021.9
2017-03-26T01:26:00.429Z,1021.92
2017-03-26T01:26:41.314Z,1021.87
2017-03-26T01:27:22.203Z,1021.88
2017-03-26T01:28:03.082Z,1021.88
2017-03-26T01:28:43.957Z,1021.84
2017-03-26T01:29:24.830Z,1021.86
2017-03-26T01:30:05.706Z,1021.84
2017-03-26T01:30:46.591Z,1021.87
2017-03-26T01:31:27.474Z,1021.82
2017-03-26T01:32:08.350Z,1021.83
2017-03-26T01:32:49.229Z,1021.8
2017-03-26T01:33:30.111Z,1021.8
2017-03-26T01:34:10.992Z,1021.83
2017-03-26T01:34:51.874Z,1021.81
2017-03-26T01:35:32.753Z,1021.82
2017-03-26T01:36:13.634Z,1021.86
2017-03-26T01:36:54.520Z,1021.83
2017-03-26T01:37:35.398Z,1021.82
2017-03-26T01:38:16.283Z,1021.82
2017-03-26T01:38:57.162Z,1021.83
2017-03-26T01:39:38.044Z,1021.82
2017-03-26T01:40:18.929Z,1021.82
2017-03-26T01:40:59.803Z,1021.81
2017-03-26T01:41:40.690Z,1021.85
2017-03-26T01:42:21.583Z,1021.85
2017-03-26T01:43:02.455Z,1021.87
2017-03-26T01:43:43.337Z,1021.89
2017-03-26T01:44:24.215Z,1021.9
2017-03-26T01:45:05.097Z,1021.88
2017-03-26T01:45:45.977Z,1021.93
2017-03-26T01:46:26.854Z,1021.92
2017-03-26T01:47:07.733Z,1021.9
2017-03-26T01:47:48.621Z,1021.92
2017-03-26T01:48:29.494Z,1021.93
2017-03-26T01:49:10.375Z,1021.94
2017-03-26T01:49:51.263Z,1021.89
2017-03-26T01:50:32.148Z,1021.91
2017-03-26T01:51:13.036Z,1021.89
2017-03-26T01:51:53.921Z,1021.9
2017-03-26T01:52:34.797Z,1021.94
2017-03-26T01:53:15.685Z,1021.93
2017-03-26T01:53:56.591Z,1021.98
2017-03-26T01:54:37.456Z,1021.98
2017-03-26T01:55:18.332Z,1021.98
2017-03-26T01:55:59.200Z,1021.98
2017-03-26T01:56:40.083Z,1022.01
2017-03-26T01:57:20.973Z,1021.99
2017-03-26T01:58:01.843Z,1022.01
2017-03-26T01:58:42.722Z,1022.05
2017-03-26T01:59:23.604Z,1022.09
2017-03-26T02:00:04.493Z,1022.11
2017-03-26T02:00:45.368Z,1022.1
2017-03-26T02:01:26.250Z,1022.1
2017-03-26T02:02:07.128Z,1022.12
2017-03-26T02:02:48.007Z,1022.16
2017-03-26T02:03:28.896Z,1022.16
2017-03-26T02:04:09.771Z,1022.17
2017-03-26T02:04:50.644Z,1022.18
2017-03-26T02:05:31.541Z,1022.17
2017-03-26T02:06:12.419Z,1022.18
2017-03-26T02:06:53.296Z,1022.16
2017-03-26T02:07:34.186Z,1022.15
2017-03-26T02:08:15.075Z,1022.13
2017-03-26T02:08:55.953Z,1022.09
2017-03-26T02:09:36.834Z,1022.1
2017-03-26T02:10:17.701Z,1022.11
2017-03-26T02:10:58.580Z,1022.1
2017-03-26T02:11:39.467Z,1022.11
2017-03-26T02:12:20.347Z,1022.1
2017-03-26T02:13:01.217Z,1022.1
2017-03-26T02:13:42.095Z,1022.11
2017-03-26T02:14:22.969Z,1022.09
2017-03-26T02:15:03.856Z,1022.1
2017-03-26T02:15:44.738Z,1022.08
2017-03-26T02:16:25.614Z,1022.05
2017-03-26T02:17:06.493Z,1022.02
2017-03-26T02:17:47.363Z,1022.05
2017-03-26T02:18:28.250Z,1022.05
2017-03-26T02:19:09.142Z,1022.06
2017-03-26T02:19:50.017Z,1022.05
2017-03-26T02:20:30.896Z,1022.04
2017-03-26T02:21:11.781Z,1022.06
2017-03-26T02:21:52.664Z,1022.03
2017-03-26T02:22:33.541Z,1022.03
2017-03-26T02:23:14.419Z,1022.02
2017-03-26T02:23:55.297Z,1021.98
2017-03-26T02:24:36.191Z,1021.96
2017-03-26T02:25:17.057Z,1021.97
2017-03-26T02:25:57.937Z,1022
2017-03-26T02:26:38.819Z,1021.99
2017-03-26T02:27:19.697Z,1022.01
2017-03-26T02:28:00.580Z,1022.02
2017-03-26T02:28:41.468Z,1022.05
2017-03-26T02:29:22.342Z,1022.03
2017-03-26T02:30:03.219Z,1022.02
2017-03-26T02:30:44.099Z,1022.02
2017-03-26T02:31:24.985Z,1022.02
2017-03-26T02:32:05.860Z,1022.02
2017-03-26T02:32:46.737Z,1022.01
2017-03-26T02:33:27.615Z,1022.01
2017-03-26T02:34:08.497Z,1021.99
2017-03-26T02:34:49.378Z,1022.01
2017-03-26T02:35:30.265Z,1021.99
2017-03-26T02:36:11.132Z,1022.01
2017-03-26T02:36:52.015Z,1022
2017-03-26T02:37:32.909Z,1022.02
2017-03-26T02:38:13.788Z,1022.01
2017-03-26T02:38:54.661Z,1022.02
2017-03-26T02:39:35.533Z,1022
2017-03-26T02:40:16.412Z,1022
2017-03-26T02:40:57.299Z,1022.07
2017-03-26T02:41:38.179Z,1022.01
2017-03-26T02:42:19.063Z,1022.03
2017-03-26T02:42:59.941Z,1022.04
2017-03-26T02:43:40.824Z,1022.01
2017-03-26T02:44:21.705Z,1022
2017-03-26T02:45:02.587Z,1021.96
2017-03-26T02:45:43.472Z,1022.02
2017-03-26T02:46:24.365Z,1021.99
2017-03-26T02:47:05.258Z,1022.03
2017-03-26T02:47:46.137Z,1022.01
2017-03-26T02:48:27.020Z,1021.97
2017-03-26T02:49:07.901Z,1022
2017-03-26T02:49:48.783Z,1021.99
2017-03-26T02:50:29.663Z,1022.02
2017-03-26T02:51:10.544Z,1021.99
2017-03-26T02:51:51.430Z,1022
2017-03-26T02:52:32.322Z,1022.04
2017-03-26T02:53:13.196Z,1022.02
2017-03-26T02:53:54.076Z,1022.01
2017-03-26T02:54:34.964Z,1022
2017-03-26T02:55:15.848Z,1021.97
2017-03-26T02:55:56.728Z,1021.99
2017-03-26T02:56:37.652Z,1021.98
2017-03-26T02:57:18.497Z,1022.02
2017-03-26T02:57:59.384Z,1021.98
2017-03-26T02:58:40.257Z,1022.01
2017-03-26T02:59:21.138Z,1022.01
2017-03-26T03:00:02.026Z,1022.01
2017-03-26T03:00:42.906Z,1021.96
2017-03-26T03:01:23.785Z,1021.96
2017-03-26T03:02:04.664Z,1021.96
2017-03-26T03:02:45.552Z,1021.96
2017-03-26T03:03:26.429Z,1021.99
2017-03-26T03:04:07.317Z,1021.99
2017-03-26T03:04:48.182Z,1022.01
2017-03-26T03:05:29.065Z,1022
2017-03-26T03:06:09.957Z,1021.98
2017-03-26T03:06:50.839Z,1022.01
2017-03-26T03:07:31.717Z,1021.95
2017-03-26T03:08:12.599Z,1021.98
2017-03-26T03:08:53.487Z,1021.96
2017-03-26T03:09:34.365Z,1021.97
2017-03-26T03:10:15.242Z,1021.95
2017-03-26T03:10:56.117Z,1021.96
2017-03-26T03:11:36.991Z,1021.94
2017-03-26T03:12:17.872Z,1021.93
2017-03-26T03:12:58.760Z,1021.94
2017-03-26T03:13:39.637Z,1021.98
2017-03-26T03:14:20.518Z,1021.97
2017-03-26T03:15:01.394Z,1021.95
2017-03-26T03:15:42.275Z,1021.95
2017-03-26T03:16:23.156Z,1021.99
2017-03-26T03:17:04.036Z,1021.97
2017-03-26T03:17:44.919Z,1021.99
2017-03-26T03:18:25.796Z,1021.99
2017-03-26T03:19:06.672Z,1021.98
2017-03-26T03:19:47.565Z,1022
2017-03-26T03:20:28.432Z,1021.99
2017-03-26T03:21:09.313Z,1022.01
2017-03-26T03:21:50.192Z,1022.04
2017-03-26T03:22:31.073Z,1022.04
2017-03-26T03:23:11.954Z,1022.05
2017-03-26T03:23:52.827Z,1022.07
2017-03-26T03:24:33.711Z,1022.08
2017-03-26T03:25:14.588Z,1022.06
2017-03-26T03:25:55.477Z,1022.06
2017-03-26T03:26:36.357Z,1022.08
2017-03-26T03:27:17.240Z,1022.1
2017-03-26T03:27:58.122Z,1022.06
2017-03-26T03:28:39.009Z,1022.1
2017-03-26T03:29:19.886Z,1022.09
2017-03-26T03:30:00.759Z,1022.09
2017-03-26T03:30:41.639Z,1022.09
2017-03-26T03:31:22.587Z,1022.11
2017-03-26T03:32:03.474Z,1022.12
2017-03-26T03:32:44.361Z,1022.12
2017-03-26T03:33:25.238Z,1022.11
2017-03-26T03:34:06.114Z,1022.09
2017-03-26T03:34:46.990Z,1022.08
2017-03-26T03:35:27.867Z,1022.04
2017-03-26T03:36:08.755Z,1022.05
2017-03-26T03:36:49.637Z,1022.07
2017-03-26T03:37:30.515Z,1022.03
2017-03-26T03:38:11.400Z,1022.05
2017-03-26T03:38:52.288Z,1022.06
2017-03-26T03:39:33.165Z,1022.06
2017-03-26T03:40:14.041Z,1022.06
2017-03-26T03:40:54.920Z,1022.03
2017-03-26T03:41:35.806Z,1022.02
2017-03-26T03:42:16.680Z,1022.02
2017-03-26T03:42:57.563Z,1022.03
2017-03-26T03:43:38.442Z,1022.01
2017-03-26T03:44:19.374Z,1022.04
2017-03-26T03:45:00.204Z,1022.05
2017-03-26T03:45:41.083Z,1022.07
2017-03-26T03:46:21.967Z,1022.06
2017-03-26T03:47:02.855Z,1022.08
2017-03-26T03:47:43.736Z,1022.06
2017-03-26T03:48:24.618Z,1022.05
2017-03-26T03:49:05.498Z,1022.04
2017-03-26T03:49:46.382Z,1022.05
2017-03-26T03:50:27.259Z,1022.03
2017-03-26T03:51:08.141Z,1022.04
2017-03-26T03:51:49.021Z,1022
2017-03-26T03:52:29.901Z,1022.01
2017-03-26T03:53:10.780Z,1021.97
2017-03-26T03:53:51.657Z,1021.97
2017-03-26T03:54:32.541Z,1021.95
2017-03-26T03:55:13.419Z,1021.96
2017-03-26T03:55:54.301Z,1021.94
2017-03-26T03:56:35.184Z,1021.96
2017-03-26T03:57:16.060Z,1021.99
2017-03-26T03:57:56.956Z,1021.98
2017-03-26T03:58:37.840Z,1021.98
2017-03-26T03:59:18.725Z,1021.92
2017-03-26T03:59:59.607Z,1021.93
2017-03-26T04:00:40.488Z,1021.95
2017-03-26T04:01:21.368Z,1021.93
2017-03-26T04:02:02.247Z,1021.96
2017-03-26T04:02:43.135Z,1021.95
2017-03-26T04:03:24.015Z,1021.97
2017-03-26T04:04:04.879Z,1021.93
2017-03-26T04:04:45.763Z,1021.96
2017-03-26T04:05:26.640Z,1021.99
2017-03-26T04:06:07.521Z,1021.99
2017-03-26T04:06:48.400Z,1021.97
2017-03-26T04:07:29.271Z,1021.96
2017-03-26T04:08:10.155Z,1021.94
2017-03-26T04:08:51.050Z,1021.95
2017-03-26T04:09:31.927Z,1021.96
2017-03-26T04:10:12.805Z,1021.98
2017-03-26T04:10:53.693Z,1021.96
2017-03-26T04:11:34.584Z,1021.98
2017-03-26T04:12:15.464Z,1021.95
2017-03-26T04:12:56.345Z,1022.01
2017-03-26T04:13:37.226Z,1021.96
2017-03-26T04:14:18.116Z,1022
2017-03-26T04:14:59.001Z,1022.02
2017-03-26T04:15:39.877Z,1022.02
2017-03-26T04:16:20.779Z,1021.99
2017-03-26T04:17:01.640Z,1022.03
2017-03-26T04:17:42.522Z,1022.04
2017-03-26T04:18:23.406Z,1022.04
2017-03-26T04:19:04.287Z,1022.05
2017-03-26T04:19:45.168Z,1022.07
2017-03-26T04:20:26.049Z,1022.06
2017-03-26T04:21:06.922Z,1022.07
2017-03-26T04:21:47.802Z,1022.08
2017-03-26T04:22:28.685Z,1022.06
2017-03-26T04:23:09.576Z,1022.05
2017-03-26T04:23:50.449Z,1022.06
2017-03-26T04:24:31.328Z,1022.07
2017-03-26T04:25:12.215Z,1022.06
2017-03-26T04:25:53.089Z,1022.04
2017-03-26T04:26:33.964Z,1022.07
2017-03-26T04:27:14.837Z,1022.06
2017-03-26T04:27:55.722Z,1022.08
2017-03-26T04:28:36.597Z,1022.07
2017-03-26T04:29:17.482Z,1022.07
2017-03-26T04:29:58.358Z,1022.08
2017-03-26T04:30:39.240Z,1022.04
2017-03-26T04:31:20.120Z,1022.05
2017-03-26T04:32:01.002Z,1022.06
2017-03-26T04:32:41.881Z,1022.03
2017-03-26T04:33:22.763Z,1022.05
2017-03-26T04:34:03.644Z,1022.02
2017-03-26T04:34:44.525Z,1022
2017-03-26T04:35:25.404Z,1022.05
2017-03-26T04:36:06.281Z,1022.07
2017-03-26T04:36:47.162Z,1022.03
2017-03-26T04:37:28.041Z,1022.11
2017-03-26T04:38:08.926Z,1022.09
2017-03-26T04:38:49.813Z,1022.1
2017-03-26T04:39:30.687Z,1022.12
2017-03-26T04:40:11.569Z,1022.13
2017-03-26T04:40:52.448Z,1022.13
2017-03-26T04:41:33.329Z,1022.09
2017-03-26T04:42:14.209Z,1022.1
2017-03-26T04:42:55.088Z,1022.06
2017-03-26T04:43:35.972Z,1022.07
2017-03-26T04:44:16.855Z,1022.06
2017-03-26T04:44:57.739Z,1022.03
2017-03-26T04:45:38.604Z,1022.09
2017-03-26T04:46:19.481Z,1022.06
2017-03-26T04:47:00.353Z,1022.06
2017-03-26T04:47:41.236Z,1022.05
2017-03-26T04:48:22.121Z,1022.04
2017-03-26T04:49:02.999Z,1022.05
2017-03-26T04:49:43.882Z,1022.04
2017-03-26T04:50:24.767Z,1022.05
2017-03-26T04:51:05.643Z,1022.01
2017-03-26T04:51:46.521Z,1022.03
2017-03-26T04:52:27.391Z,1022.01
2017-03-26T04:53:08.278Z,1021.98
2017-03-26T04:53:49.160Z,1022
2017-03-26T04:54:30.044Z,1022
2017-03-26T04:55:10.937Z,1021.97
2017-03-26T04:55:51.818Z,1022
2017-03-26T04:56:32.698Z,1022.02
2017-03-26T04:57:13.585Z,1022.02
2017-03-26T04:57:54.458Z,1022.04
2017-03-26T04:58:35.336Z,1022.01
2017-03-26T04:59:16.217Z,1022.01
2017-03-26T04:59:57.105Z,1022.01
2017-03-26T05:00:37.987Z,1022.05
2017-03-26T05:01:18.878Z,1022.05
2017-03-26T05:01:59.762Z,1022.06
2017-03-26T05:02:40.637Z,1022.02
2017-03-26T05:03:21.514Z,1022.03
2017-03-26T05:04:02.384Z,1022.06
2017-03-26T05:04:43.267Z,1022.06
2017-03-26T05:05:24.151Z,1022.07
2017-03-26T05:06:05.030Z,1022.08
2017-03-26T05:06:45.909Z,1022.06
2017-03-26T05:07:26.801Z,1022.06
2017-03-26T05:08:07.686Z,1022.04
2017-03-26T05:08:48.570Z,1022.08
2017-03-26T05:09:29.451Z,1022.08
2017-03-26T05:10:10.343Z,1022.1
2017-03-26T05:10:51.224Z,1022.05
2017-03-26T05:11:32.153Z,1022.07
2017-03-26T05:12:12.987Z,1022.08
2017-03-26T05:12:53.864Z,1022.07
2017-03-26T05:13:34.755Z,1022.09
2017-03-26T05:14:15.634Z,1022.08
2017-03-26T05:14:56.508Z,1022.08
2017-03-26T05:15:37.385Z,1022.11
2017-03-26T05:16:18.267Z,1022.12
2017-03-26T05:16:59.150Z,1022.1
2017-03-26T05:17:40.026Z,1022.09
2017-03-26T05:18:20.906Z,1022.1
2017-03-26T05:19:01.806Z,1022.06
2017-03-26T05:19:42.686Z,1022.05
2017-03-26T05:20:23.567Z,1022.03
2017-03-26T05:21:04.440Z,1022
2017-03-26T05:21:45.324Z,1022.04
2017-03-26T05:22:26.252Z,1022.05
2017-03-26T05:23:07.089Z,1022.03
2017-03-26T05:23:47.970Z,1022.05
2017-03-26T05:24:28.857Z,1022.1
2017-03-26T05:25:09.764Z,1022.08
2017-03-26T05:25:50.643Z,1022.09
2017-03-26T05:26:31.519Z,1022.13
2017-03-26T05:27:12.399Z,1022.17
2017-03-26T05:27:53.281Z,1022.15
2017-03-26T05:28:34.168Z,1022.16
2017-03-26T05:29:15.043Z,1022.13
2017-03-26T05:29:55.919Z,1022.12
2017-03-26T05:30:36.804Z,1022.12
2017-03-26T05:31:17.684Z,1022.12
2017-03-26T05:31:58.569Z,1022.13
2017-03-26T05:32:39.443Z,1022.16
2017-03-26T05:33:20.327Z,1022.18
2017-03-26T05:34:01.203Z,1022.19
2017-03-26T05:34:42.086Z,1022.19
2017-03-26T05:35:22.966Z,1022.24
2017-03-26T05:36:03.866Z,1022.21
2017-03-26T05:36:44.751Z,1022.23
2017-03-26T05:37:25.636Z,1022.25
2017-03-26T05:38:06.514Z,1022.27
2017-03-26T05:38:47.392Z,1022.27
2017-03-26T05:39:28.273Z,1022.34
2017-03-26T05:40:09.153Z,1022.36
2017-03-26T05:40:50.025Z,1022.38
2017-03-26T05:41:30.908Z,1022.42
2017-03-26T05:42:11.795Z,1022.41
2017-03-26T05:42:52.675Z,1022.44
2017-03-26T05:43:33.557Z,1022.44
2017-03-26T05:44:14.448Z,1022.45
2017-03-26T05:44:55.328Z,1022.49
2017-03-26T05:45:36.210Z,1022.44
2017-03-26T05:46:17.084Z,1022.49
2017-03-26T05:46:57.959Z,1022.47
2017-03-26T05:47:38.841Z,1022.5
2017-03-26T05:48:19.724Z,1022.46
2017-03-26T05:49:00.598Z,1022.53
2017-03-26T05:49:41.481Z,1022.52
2017-03-26T05:50:22.375Z,1022.5
2017-03-26T05:51:03.260Z,1022.56
2017-03-26T05:51:44.140Z,1022.56
2017-03-26T05:52:25.025Z,1022.57
2017-03-26T05:53:05.902Z,1022.57
2017-03-26T05:53:46.793Z,1022.6
2017-03-26T05:54:27.665Z,1022.61
2017-03-26T05:55:08.543Z,1022.6
2017-03-26T05:55:49.415Z,1022.65
2017-03-26T05:56:30.302Z,1022.68
2017-03-26T05:57:11.185Z,1022.69
2017-03-26T05:57:52.061Z,1022.66
2017-03-26T05:58:32.942Z,1022.69
2017-03-26T05:59:13.820Z,1022.71
2017-03-26T05:59:54.705Z,1022.69
2017-03-26T06:00:35.584Z,1022.68
2017-03-26T06:01:16.465Z,1022.69
2017-03-26T06:01:57.335Z,1022.7
2017-03-26T06:02:38.222Z,1022.72
2017-03-26T06:03:19.103Z,1022.7
2017-03-26T06:03:59.990Z,1022.71
2017-03-26T06:04:40.870Z,1022.71
2017-03-26T06:05:21.755Z,1022.75
2017-03-26T06:06:02.641Z,1022.75
2017-03-26T06:06:43.514Z,1022.73
2017-03-26T06:07:24.394Z,1022.78
2017-03-26T06:08:05.275Z,1022.79
2017-03-26T06:08:46.156Z,1022.81
2017-03-26T06:09:27.027Z,1022.83
2017-03-26T06:10:07.915Z,1022.85
2017-03-26T06:10:48.795Z,1022.87
2017-03-26T06:11:29.678Z,1022.88
2017-03-26T06:12:10.556Z,1022.9
2017-03-26T06:12:51.437Z,1022.88
2017-03-26T06:13:32.327Z,1022.93
2017-03-26T06:14:13.203Z,1022.91
2017-03-26T06:14:54.093Z,1022.9
2017-03-26T06:15:34.971Z,1022.92
2017-03-26T06:16:15.853Z,1022.95
2017-03-26T06:16:56.729Z,1022.94
2017-03-26T06:17:37.613Z,1022.9
2017-03-26T06:18:18.489Z,1022.92
2017-03-26T06:18:59.372Z,1022.91
2017-03-26T06:19:40.237Z,1022.9
2017-03-26T06:20:21.111Z,1022.92
2017-03-26T06:21:01.995Z,1022.9
2017-03-26T06:21:42.877Z,1022.91
2017-03-26T06:22:23.756Z,1022.91
2017-03-26T06:23:04.639Z,1022.92
2017-03-26T06:23:45.528Z,1022.92
2017-03-26T06:24:26.408Z,1022.96
2017-03-26T06:25:07.287Z,1023
2017-03-26T06:25:48.171Z,1022.97
2017-03-26T06:26:29.058Z,1023.03
2017-03-26T06:27:09.943Z,1023.04
2017-03-26T06:27:50.824Z,1023.02
2017-03-26T06:28:31.701Z,1023.02
2017-03-26T06:29:12.579Z,1023.02
2017-03-26T06:29:53.454Z,1023.04
2017-03-26T06:30:34.340Z,1023.06
2017-03-26T06:31:15.235Z,1023.1
2017-03-26T06:31:56.129Z,1023.09
2017-03-26T06:32:36.961Z,1023.12
2017-03-26T06:33:17.842Z,1023.1
2017-03-26T06:33:58.725Z,1023.12
2017-03-26T06:34:39.604Z,1023.14
2017-03-26T06:35:20.478Z,1023.08
2017-03-26T06:36:01.355Z,1023.16
2017-03-26T06:36:42.235Z,1023.14
2017-03-26T06:37:23.118Z,1023.16
2017-03-26T06:38:04.001Z,1023.17
2017-03-26T06:38:44.889Z,1023.17
2017-03-26T06:39:25.764Z,1023.17
2017-03-26T06:40:06.645Z,1023.17
2017-03-26T06:40:47.527Z,1023.21
2017-03-26T06:41:28.410Z,1023.24
2017-03-26T06:42:09.293Z,1023.23
2017-03-26T06:42:50.167Z,1023.28
2017-03-26T06:43:31.059Z,1023.24
2017-03-26T06:44:11.942Z,1023.29
2017-03-26T06:44:52.818Z,1023.29
2017-03-26T06:45:33.699Z,1023.29
2017-03-26T06:46:14.580Z,1023.29
2017-03-26T06:46:55.460Z,1023.3
2017-03-26T06:47:36.334Z,1023.3
2017-03-26T06:48:17.210Z,1023.35
2017-03-26T06:48:58.088Z,1023.31
2017-03-26T06:49:38.971Z,1023.35
2017-03-26T06:50:19.859Z,1023.35
2017-03-26T06:51:00.732Z,1023.35
2017-03-26T06:51:41.607Z,1023.39
2017-03-26T06:52:22.490Z,1023.39
2017-03-26T06:53:03.375Z,1023.42
2017-03-26T06:53:44.255Z,1023.41
2017-03-26T06:54:25.133Z,1023.41
2017-03-26T06:55:06.010Z,1023.42
2017-03-26T06:55:46.892Z,1023.42
2017-03-26T06:56:27.775Z,1023.44
2017-03-26T06:57:08.656Z,1023.46
2017-03-26T06:57:49.539Z,1023.44
2017-03-26T06:58:30.421Z,1023.46
2017-03-26T06:59:11.303Z,1023.49
2017-03-26T06:59:52.181Z,1023.46
2017-03-26T07:00:33.063Z,1023.48
2017-03-26T07:01:13.948Z,1023.53
2017-03-26T07:01:54.845Z,1023.55
2017-03-26T07:02:35.715Z,1023.51
2017-03-26T07:03:16.599Z,1023.5
2017-03-26T07:03:57.485Z,1023.48
2017-03-26T07:04:38.370Z,1023.53
2017-03-26T07:05:19.248Z,1023.56
2017-03-26T07:06:00.128Z,1023.53
2017-03-26T07:06:41.011Z,1023.52
2017-03-26T07:07:21.893Z,1023.53
2017-03-26T07:08:02.777Z,1023.53
2017-03-26T07:08:43.653Z,1023.56
2017-03-26T07:09:24.531Z,1023.55
2017-03-26T07:10:05.419Z,1023.55
2017-03-26T07:10:46.332Z,1023.54
2017-03-26T07:11:27.187Z,1023.54
2017-03-26T07:12:08.064Z,1023.54
2017-03-26T07:12:48.950Z,1023.56
2017-03-26T07:13:29.833Z,1023.55
2017-03-26T07:14:10.714Z,1023.56
2017-03-26T07:14:51.596Z,1023.58
2017-03-26T07:15:32.473Z,1023.59
2017-03-26T07:16:13.361Z,1023.57
2017-03-26T07:16:54.240Z,1023.58
2017-03-26T07:17:35.119Z,1023.55
2017-03-26T07:18:16.005Z,1023.58
2017-03-26T07:18:56.884Z,1023.6
2017-03-26T07:19:37.768Z,1023.63
2017-03-26T07:20:18.648Z,1023.62
2017-03-26T07:20:59.539Z,1023.64
2017-03-26T07:21:40.424Z,1023.63
2017-03-26T07:22:21.302Z,1023.62
2017-03-26T07:23:02.181Z,1023.65
2017-03-26T07:23:43.064Z,1023.64
2017-03-26T07:24:23.945Z,1023.66
2017-03-26T07:25:04.834Z,1023.67
2017-03-26T07:25:45.711Z,1023.7
2017-03-26T07:26:26.596Z,1023.69
2017-03-26T07:27:07.478Z,1023.71
2017-03-26T07:27:48.365Z,1023.71
2017-03-26T07:28:29.238Z,1023.7
2017-03-26T07:29:10.122Z,1023.7
2017-03-26T07:29:51.001Z,1023.68
2017-03-26T07:30:31.885Z,1023.72
2017-03-26T07:31:12.769Z,1023.76
2017-03-26T07:31:53.655Z,1023.69
2017-03-26T07:32:34.542Z,1023.75
2017-03-26T07:33:15.424Z,1023.75
2017-03-26T07:33:56.305Z,1023.69
2017-03-26T07:34:37.187Z,1023.7
2017-03-26T07:35:18.072Z,1023.69
2017-03-26T07:35:58.956Z,1023.71
2017-03-26T07:36:39.837Z,1023.73
2017-03-26T07:37:20.723Z,1023.73
2017-03-26T07:38:01.607Z,1023.75
2017-03-26T07:38:42.499Z,1023.71
2017-03-26T07:39:23.372Z,1023.74
2017-03-26T07:40:04.251Z,1023.78
2017-03-26T07:40:45.141Z,1023.71
2017-03-26T07:41:26.031Z,1023.75
2017-03-26T07:42:06.906Z,1023.74
2017-03-26T07:42:47.793Z,1023.76
2017-03-26T07:43:28.698Z,1023.77
2017-03-26T07:44:09.589Z,1023.77
2017-03-26T07:44:50.472Z,1023.75
2017-03-26T07:45:31.351Z,1023.78
2017-03-26T07:46:12.241Z,1023.77
2017-03-26T07:46:53.130Z,1023.78
2017-03-26T07:47:34.008Z,1023.8
2017-03-26T07:48:14.891Z,1023.75
2017-03-26T07:48:55.773Z,1023.79
2017-03-26T07:49:36.658Z,1023.78
2017-03-26T07:50:17.547Z,1023.76
2017-03-26T07:50:58.430Z,1023.76
2017-03-26T07:51:39.310Z,1023.75
2017-03-26T07:52:20.193Z,1023.78
2017-03-26T07:53:01.076Z,1023.75
2017-03-26T07:53:41.957Z,1023.74
2017-03-26T07:54:22.849Z,1023.72
2017-03-26T07:55:03.726Z,1023.74
2017-03-26T07:55:44.609Z,1023.75
2017-03-26T07:56:25.488Z,1023.74
2017-03-26T07:57:06.375Z,1023.83
2017-03-26T07:57:47.253Z,1023.8
2017-03-26T07:58:28.136Z,1023.83
2017-03-26T07:59:09.020Z,1023.85
2017-03-26T07:59:49.904Z,1023.84
2017-03-26T08:00:30.778Z,1023.84
2017-03-26T08:01:11.660Z,1023.87
2017-03-26T08:01:52.554Z,1023.88
2017-03-26T08:02:33.442Z,1023.94
2017-03-26T08:03:14.320Z,1023.94
2017-03-26T08:03:55.204Z,1023.97
2017-03-26T08:04:36.082Z,1023.98
2017-03-26T08:05:16.973Z,1023.95
2017-03-26T08:05:57.853Z,1024.02
2017-03-26T08:06:38.737Z,1024.06
2017-03-26T08:07:19.619Z,1024.06
2017-03-26T08:08:00.505Z,1024.14
2017-03-26T08:08:41.393Z,1024.18
2017-03-26T08:09:22.280Z,1024.3
2017-03-26T08:10:03.168Z,1024.38
2017-03-26T08:10:44.052Z,1024.39
2017-03-26T08:11:24.938Z,1024.33
2017-03-26T08:12:05.832Z,1024.19
2017-03-26T08:12:46.719Z,1024.12
2017-03-26T08:13:27.612Z,1024.1
2017-03-26T08:14:08.502Z,1024.06
2017-03-26T08:14:49.419Z,1024.06
2017-03-26T08:15:30.288Z,1024.04
2017-03-26T08:16:11.176Z,1024.07
2017-03-26T08:16:52.068Z,1024.07